This is the latest recevied weather packets stored in our database for station/object EA6AMI-5. If no packets are shown the sender has not sent any weather packets the latest 10 day(s).
| Time | Temp. | Humidity | Pressure | Rain* | Wind** | Luminosity | Snow |
|---|---|---|---|---|---|---|---|
| 1777978444 | 20° C | 63% | 1012.1 hPa | 0 mm | - | 924 W/m² | - |
| 1777977903 | 19.44° C | 66% | 1012.2 hPa | 0 mm | - | 916 W/m² | - |
| 1777977363 | 19.44° C | 67% | 1012.2 hPa | 0 mm | - | 927 W/m² | - |
| 1777976823 | 19.44° C | 66% | 1012.3 hPa | 0 mm | - | 274 W/m² | - |
| 1777976284 | 19.44° C | 65% | 1012.1 hPa | 0 mm | - | 867 W/m² | - |
| 1777975743 | 20° C | 64% | 1012.2 hPa | 0 mm | - | 143 W/m² | - |
| 1777975204 | 19.44° C | 65% | 1012.3 hPa | 0 mm | - | 835 W/m² | - |
| 1777974843 | 19.44° C | 65% | 1012.4 hPa | 0 mm | - | 707 W/m² | - |
| 1777974303 | 18.89° C | 68% | 1012.3 hPa | 0 mm | - | 776 W/m² | - |
| 1777973763 | 20° C | 65% | 1012.2 hPa | 0 mm | - | 533 W/m² | - |
| 1777973224 | 19.44° C | 64% | 1012.3 hPa | 0 mm | - | 708 W/m² | - |
| 1777972684 | 18.89° C | 68% | 1012.4 hPa | 0 mm | - | 658 W/m² | - |
| 1777972143 | 18.89° C | 68% | 1012.2 hPa | 0 mm | - | 312 W/m² | - |
| 1777971603 | 20° C | 66% | 1012.2 hPa | 0 mm | - | 184 W/m² | - |
| 1777971244 | 19.44° C | 67% | 1012 hPa | 0 mm | - | 531 W/m² | - |
| 1777970704 | 18.89° C | 70% | 1012.1 hPa | 0 mm | - | 564 W/m² | - |
| 1777970163 | 18.89° C | 69% | 1012 hPa | 0 mm | - | 548 W/m² | - |
| 1777969623 | 18.33° C | 74% | 1012.2 hPa | 0 mm | - | 531 W/m² | - |
| 1777969083 | 18.89° C | 73% | 1012.3 hPa | 0 mm | - | 407 W/m² | - |
| 1777968543 | 18.33° C | 73% | 1012.4 hPa | 0 mm | - | 426 W/m² | - |
| 1777968004 | 18.33° C | 75% | 1012.3 hPa | 0 mm | - | 334 W/m² | - |
| 1777967643 | 17.78° C | 76% | 1012.3 hPa | 0 mm | - | 381 W/m² | - |
| 1777967103 | 17.78° C | 77% | 1012.2 hPa | 0 mm | - | 341 W/m² | - |
| 1777966563 | 17.78° C | 78% | 1012.3 hPa | 0 mm | - | 131 W/m² | - |
| 1777966024 | 17.22° C | 79% | 1012.3 hPa | 0 mm | - | 86 W/m² | - |
* Rain latest hour (hover to see other rain measurements)
** Current wind speed in m/s (hover to see current wind gust speed)